createdAt,value
2018-12-18T00:00:37.935Z,66.04
2018-12-18T00:05:44.904Z,65.85
2018-12-18T00:11:04.094Z,64.76
2018-12-18T00:16:10.391Z,64.91
2018-12-18T00:21:15.802Z,65.66
2018-12-18T00:26:21.007Z,65.47
2018-12-18T00:31:26.363Z,65.02
2018-12-18T00:36:32.512Z,65.45
2018-12-18T00:41:37.913Z,66.12
2018-12-18T00:46:43.546Z,65.28
2018-12-18T00:51:48.468Z,65.20
2018-12-18T00:56:53.415Z,65.91
2018-12-18T01:02:01.849Z,66.52
2018-12-18T01:07:07.250Z,65.57
2018-12-18T01:12:12.193Z,65.91
2018-12-18T01:17:17.228Z,65.77
2018-12-18T01:22:22.259Z,66.31
2018-12-18T01:27:27.265Z,66.25
2018-12-18T01:32:32.255Z,66.47
2018-12-18T01:37:37.326Z,66.57
2018-12-18T01:42:42.176Z,66.16
2018-12-18T01:47:47.169Z,65.05
2018-12-18T01:52:52.187Z,65.37
2018-12-18T01:57:57.121Z,65.28
2018-12-18T02:03:02.047Z,66.26
2018-12-18T02:08:07.131Z,66.49
2018-12-18T02:13:12.100Z,65.80
2018-12-18T02:18:17.352Z,65.76
2018-12-18T02:23:22.221Z,66.06
2018-12-18T02:28:27.335Z,66.68
2018-12-18T02:33:32.496Z,66.28
2018-12-18T02:38:38.503Z,65.53
2018-12-18T02:43:44.330Z,66.46
2018-12-18T02:48:49.549Z,66.32
2018-12-18T02:53:54.679Z,65.64
2018-12-18T02:58:59.634Z,65.75
2018-12-18T03:04:04.849Z,65.62
2018-12-18T03:09:10.075Z,65.22
2018-12-18T03:14:16.000Z,65.08
2018-12-18T03:19:20.984Z,65.25
2018-12-18T03:24:26.098Z,65.54
2018-12-18T03:29:31.105Z,66.14
2018-12-18T03:34:36.106Z,65.26
2018-12-18T03:39:41.217Z,65.49
2018-12-18T03:44:46.566Z,65.95
2018-12-18T03:49:52.119Z,66.06
2018-12-18T03:54:57.028Z,66.29
2018-12-18T04:00:02.147Z,66.02
2018-12-18T04:05:10.445Z,66.11
2018-12-18T04:10:15.491Z,67.06
2018-12-18T04:15:20.794Z,66.41
2018-12-18T04:20:26.019Z,65.92
2018-12-18T04:25:31.887Z,66.46
2018-12-18T04:30:36.863Z,66.02
2018-12-18T04:35:41.800Z,66.31
2018-12-18T04:40:47.570Z,65.68
2018-12-18T04:45:52.796Z,66.14
2018-12-18T04:50:57.812Z,67.25
2018-12-18T04:56:03.430Z,66.06
2018-12-18T05:01:08.666Z,66.68
2018-12-18T05:06:13.701Z,66.80
2018-12-18T05:11:18.674Z,67.28
2018-12-18T05:16:23.695Z,67.06
2018-12-18T05:21:28.881Z,67.25
2018-12-18T05:26:33.808Z,65.99
2018-12-18T05:31:38.861Z,66.26
2018-12-18T05:36:43.794Z,66.86
2018-12-18T05:41:48.837Z,66.91
2018-12-18T05:46:53.801Z,65.66
2018-12-18T05:52:05.517Z,67.41
2018-12-18T05:57:11.311Z,66.42
2018-12-18T06:02:16.216Z,66.18
2018-12-18T06:07:23.608Z,65.89
2018-12-18T06:12:28.596Z,65.86
2018-12-18T06:17:34.867Z,65.36
2018-12-18T06:22:41.178Z,66.00
2018-12-18T06:27:46.539Z,64.93
2018-12-18T06:32:52.516Z,65.38
2018-12-18T06:37:57.609Z,64.89
2018-12-18T06:43:03.808Z,65.15
2018-12-18T06:48:08.835Z,65.40
2018-12-18T06:53:14.027Z,64.66
2018-12-18T06:58:19.168Z,64.72
2018-12-18T07:03:24.399Z,64.90
2018-12-18T07:08:29.711Z,63.60
2018-12-18T07:13:34.752Z,64.80
2018-12-18T07:18:39.695Z,64.77
2018-12-18T07:23:44.704Z,64.78
2018-12-18T07:28:50.036Z,64.13
2018-12-18T07:33:55.229Z,64.24
2018-12-18T07:39:00.429Z,64.59
2018-12-18T07:44:07.234Z,63.26
2018-12-18T07:49:12.317Z,64.30
2018-12-18T07:54:17.260Z,64.51
2018-12-18T07:59:22.211Z,64.29
2018-12-18T08:04:27.212Z,63.24
2018-12-18T08:09:32.203Z,64.71
2018-12-18T08:14:37.172Z,62.74
2018-12-18T08:19:42.236Z,63.71
2018-12-18T08:24:47.193Z,63.33
2018-12-18T08:29:52.187Z,63.33
2018-12-18T08:34:57.277Z,63.56
2018-12-18T08:40:02.411Z,63.23
2018-12-18T08:45:09.574Z,63.03
2018-12-18T08:50:14.855Z,63.25
2018-12-18T08:55:20.193Z,63.26
2018-12-18T09:00:25.314Z,62.50
2018-12-18T09:05:30.379Z,61.95
2018-12-18T09:10:39.830Z,62.19
2018-12-18T09:16:00.419Z,62.38
2018-12-18T09:21:05.647Z,62.15
2018-12-18T09:26:12.060Z,61.76
2018-12-18T09:31:17.021Z,61.27
2018-12-18T09:36:22.327Z,62.09
2018-12-18T09:41:29.850Z,62.53
2018-12-18T09:46:34.849Z,61.41
2018-12-18T09:51:39.805Z,61.65
2018-12-18T09:56:50.398Z,60.72
2018-12-18T10:01:55.434Z,61.23
2018-12-18T10:07:00.383Z,61.35
2018-12-18T10:12:05.711Z,60.43
2018-12-18T10:17:11.020Z,60.64
2018-12-18T10:22:15.963Z,60.67
2018-12-18T10:27:21.318Z,59.73
2018-12-18T10:32:26.273Z,60.32
2018-12-18T10:37:31.595Z,59.18
2018-12-18T10:42:36.908Z,59.55
2018-12-18T10:47:43.070Z,58.81
2018-12-18T10:52:48.231Z,60.23
2018-12-18T10:57:53.408Z,60.70
2018-12-18T11:04:53.134Z,60.04
2018-12-18T11:09:58.101Z,59.69
2018-12-18T11:15:05.703Z,58.75
2018-12-18T11:20:10.699Z,57.52
2018-12-18T11:25:15.624Z,59.80
2018-12-18T11:30:20.829Z,59.34
2018-12-18T11:35:25.788Z,58.52
2018-12-18T11:40:30.816Z,58.77
2018-12-18T11:45:38.422Z,57.82
2018-12-18T11:50:43.848Z,58.79
2018-12-18T11:55:49.349Z,60.12
2018-12-18T12:00:54.423Z,57.76
2018-12-18T12:06:00.037Z,58.13
2018-12-18T12:11:06.289Z,58.59
2018-12-18T12:16:11.411Z,57.53
2018-12-18T12:21:16.245Z,58.14
2018-12-18T12:26:26.342Z,59.83
2018-12-18T12:31:31.331Z,59.49
2018-12-18T12:36:36.583Z,58.58
2018-12-18T12:41:41.523Z,58.25
2018-12-18T12:46:46.692Z,59.18
2018-12-18T12:51:51.890Z,58.71
2018-12-18T12:56:56.913Z,59.88
2018-12-18T13:02:02.319Z,59.91
2018-12-18T13:07:07.655Z,59.44
2018-12-18T13:12:13.099Z,59.57
2018-12-18T13:17:18.338Z,59.69
2018-12-18T13:22:23.881Z,59.38
2018-12-18T13:27:29.416Z,59.01
2018-12-18T13:32:36.262Z,58.31
2018-12-18T13:37:41.591Z,57.94
2018-12-18T13:42:47.376Z,57.79
2018-12-18T13:47:52.332Z,58.72
2018-12-18T13:52:57.834Z,58.15
2018-12-18T13:58:04.014Z,58.65
2018-12-18T14:03:09.315Z,57.89
2018-12-18T14:08:14.354Z,59.04
2018-12-18T14:13:19.290Z,59.34
2018-12-18T14:18:25.557Z,58.76
2018-12-18T14:23:30.782Z,59.75
2018-12-18T14:28:35.943Z,60.75
2018-12-18T14:38:52.638Z,60.43
2018-12-18T14:43:57.656Z,60.73
2018-12-18T14:49:02.723Z,61.01
2018-12-18T14:54:09.664Z,61.77
2018-12-18T14:59:16.230Z,61.67
2018-12-18T15:04:21.226Z,61.11
2018-12-18T15:09:26.790Z,62.13
2018-12-18T15:14:31.721Z,63.60
2018-12-18T15:19:36.649Z,63.75
2018-12-18T15:24:41.743Z,64.84
2018-12-18T15:29:47.077Z,64.20
2018-12-18T15:34:51.994Z,63.99
2018-12-18T15:39:57.198Z,65.05
2018-12-18T15:45:02.438Z,65.16
2018-12-18T15:50:09.280Z,65.84
2018-12-18T15:55:14.799Z,66.99
2018-12-18T16:00:19.827Z,68.13
2018-12-18T16:05:25.675Z,67.26
2018-12-18T16:10:38.880Z,66.55
2018-12-18T16:15:44.622Z,66.23
2018-12-18T16:20:49.713Z,65.50
2018-12-18T16:25:55.797Z,65.86
2018-12-18T16:31:00.878Z,65.06
2018-12-18T16:36:06.789Z,64.18
2018-12-18T16:41:12.623Z,65.61
2018-12-18T16:46:18.135Z,65.64
2018-12-18T16:51:25.201Z,65.51
2018-12-18T16:56:31.445Z,65.83
2018-12-18T17:01:36.543Z,65.49
2018-12-18T17:06:41.560Z,64.70
2018-12-18T17:11:46.707Z,65.77
2018-12-18T17:16:52.524Z,65.55
2018-12-18T17:21:58.891Z,64.85
2018-12-18T17:27:04.609Z,65.00
2018-12-18T17:32:11.757Z,65.58
2018-12-18T17:37:16.809Z,65.15
2018-12-18T17:42:22.076Z,65.83
2018-12-18T17:47:27.102Z,65.87
2018-12-18T17:52:33.377Z,66.51
2018-12-18T17:57:39.728Z,66.83
2018-12-18T18:02:45.123Z,66.71
2018-12-18T18:07:51.431Z,66.34
2018-12-18T18:18:08.117Z,66.84
2018-12-18T18:23:13.442Z,69.25
2018-12-18T18:28:21.010Z,69.16
2018-12-18T18:33:26.129Z,70.99
2018-12-18T18:38:31.941Z,70.10
2018-12-18T18:43:37.098Z,70.00
2018-12-18T18:48:43.640Z,69.91
2018-12-18T18:53:50.336Z,70.67
2018-12-18T18:59:00.589Z,70.25
2018-12-18T19:04:06.892Z,70.81
2018-12-18T19:09:12.083Z,70.95
2018-12-18T19:14:21.769Z,70.11
2018-12-18T19:19:28.147Z,69.75
2018-12-18T19:24:35.460Z,69.69
2018-12-18T19:29:42.982Z,69.60
2018-12-18T19:34:49.396Z,71.37
2018-12-18T19:39:59.743Z,71.77
2018-12-18T19:45:11.627Z,70.99
2018-12-18T19:50:18.477Z,71.89
2018-12-18T19:55:24.103Z,72.42
2018-12-18T20:00:32.220Z,72.03
2018-12-18T20:05:38.473Z,73.76
2018-12-18T20:10:47.795Z,72.84
2018-12-18T20:15:55.000Z,72.04
2018-12-18T20:21:04.271Z,72.46
2018-12-18T20:26:12.051Z,71.99
2018-12-18T20:31:19.017Z,72.44
2018-12-18T20:36:29.531Z,74.12
2018-12-18T20:41:35.294Z,72.56
2018-12-18T20:46:41.736Z,71.44
2018-12-18T20:51:59.607Z,72.37
2018-12-18T20:57:06.669Z,72.11
2018-12-18T21:02:13.670Z,72.12
2018-12-18T21:07:19.472Z,71.79
2018-12-18T21:12:25.696Z,71.97
2018-12-18T21:17:33.627Z,71.70
2018-12-18T21:22:39.129Z,71.09
2018-12-18T21:27:45.087Z,71.16
2018-12-18T21:32:50.822Z,70.81
2018-12-18T21:37:56.834Z,71.56
2018-12-18T21:43:02.095Z,71.21
2018-12-18T21:48:08.543Z,71.69
2018-12-18T21:53:14.144Z,70.75
2018-12-18T21:58:20.234Z,70.57
2018-12-18T22:03:26.963Z,71.49
2018-12-18T22:08:36.791Z,70.69
2018-12-18T22:13:41.965Z,70.57
2018-12-18T22:18:48.370Z,71.37
2018-12-18T22:23:53.415Z,70.48
2018-12-18T22:28:58.359Z,70.39
2018-12-18T22:34:04.453Z,70.10
2018-12-18T22:39:09.826Z,71.14
2018-12-18T22:44:14.979Z,70.33
2018-12-18T22:49:21.071Z,71.06
2018-12-18T22:54:26.363Z,69.31
2018-12-18T22:59:31.656Z,68.81
2018-12-18T23:04:37.548Z,69.59
2018-12-18T23:20:06.457Z,68.25
2018-12-18T23:25:11.460Z,68.47
2018-12-18T23:30:17.509Z,69.52
2018-12-18T23:35:22.518Z,69.90
2018-12-18T23:40:27.503Z,70.42
2018-12-18T23:45:32.788Z,70.25
2018-12-18T23:50:38.204Z,69.78
2018-12-18T23:55:43.498Z,70.33
